sensor_id;sensor_type;location;lat;lon;timestamp;P1;durP1;ratioP1;P2;durP2;ratioP2
1567;SDS011;777;47.156;8.326;2023-07-20T00:01:45;6.03;;;3.50;;
1567;SDS011;777;47.156;8.326;2023-07-20T00:04:24;6.70;;;3.40;;
1567;SDS011;777;47.156;8.326;2023-07-20T00:07:10;5.53;;;3.40;;
1567;SDS011;777;47.156;8.326;2023-07-20T00:09:55;4.68;;;2.80;;
1567;SDS011;777;47.156;8.326;2023-07-20T00:12:46;4.57;;;2.70;;
1567;SDS011;777;47.156;8.326;2023-07-20T00:15:15;4.53;;;2.63;;
1567;SDS011;777;47.156;8.326;2023-07-20T00:18:02;4.78;;;2.60;;
1567;SDS011;777;47.156;8.326;2023-07-20T00:20:44;6.82;;;3.10;;
1567;SDS011;777;47.156;8.326;2023-07-20T00:23:44;3.88;;;2.53;;
1567;SDS011;777;47.156;8.326;2023-07-20T00:26:37;5.75;;;2.58;;
1567;SDS011;777;47.156;8.326;2023-07-20T00:29:22;4.57;;;2.13;;
1567;SDS011;777;47.156;8.326;2023-07-20T00:31:56;5.90;;;2.45;;
1567;SDS011;777;47.156;8.326;2023-07-20T00:35:00;5.85;;;2.00;;
1567;SDS011;777;47.156;8.326;2023-07-20T00:37:46;2.67;;;1.80;;
1567;SDS011;777;47.156;8.326;2023-07-20T00:40:26;3.05;;;1.77;;
1567;SDS011;777;47.156;8.326;2023-07-20T00:43:04;3.72;;;1.52;;
1567;SDS011;777;47.156;8.326;2023-07-20T00:45:47;5.47;;;2.00;;
1567;SDS011;777;47.156;8.326;2023-07-20T00:48:41;3.03;;;1.77;;
1567;SDS011;777;47.156;8.326;2023-07-20T00:51:21;3.33;;;1.92;;
1567;SDS011;777;47.156;8.326;2023-07-20T00:54:14;3.20;;;1.77;;
1567;SDS011;777;47.156;8.326;2023-07-20T00:57:02;2.95;;;1.63;;
1567;SDS011;777;47.156;8.326;2023-07-20T00:59:49;3.40;;;1.92;;
1567;SDS011;777;47.156;8.326;2023-07-20T01:02:23;5.63;;;1.50;;
1567;SDS011;777;47.156;8.326;2023-07-20T01:05:03;4.43;;;1.92;;
1567;SDS011;777;47.156;8.326;2023-07-20T01:07:53;3.33;;;1.70;;
1567;SDS011;777;47.156;8.326;2023-07-20T01:10:43;2.10;;;1.42;;
1567;SDS011;777;47.156;8.326;2023-07-20T01:13:20;2.92;;;1.77;;
1567;SDS011;777;47.156;8.326;2023-07-20T01:15:53;2.95;;;1.77;;
1567;SDS011;777;47.156;8.326;2023-07-20T01:18:29;3.33;;;1.98;;
1567;SDS011;777;47.156;8.326;2023-07-20T01:21:12;5.72;;;1.90;;
1567;SDS011;777;47.156;8.326;2023-07-20T01:27:27;5.47;;;2.10;;
1567;SDS011;777;47.156;8.326;2023-07-20T01:30:45;3.17;;;2.22;;
1567;SDS011;777;47.156;8.326;2023-07-20T01:33:37;3.45;;;2.08;;
1567;SDS011;777;47.156;8.326;2023-07-20T01:36:15;3.33;;;1.85;;
1567;SDS011;777;47.156;8.326;2023-07-20T01:39:21;5.38;;;1.98;;
1567;SDS011;777;47.156;8.326;2023-07-20T01:44:56;4.97;;;2.08;;
1567;SDS011;777;47.156;8.326;2023-07-20T01:47:28;2.92;;;1.83;;
1567;SDS011;777;47.156;8.326;2023-07-20T01:53:08;3.45;;;1.90;;
1567;SDS011;777;47.156;8.326;2023-07-20T01:55:52;4.55;;;1.90;;
1567;SDS011;777;47.156;8.326;2023-07-20T01:58:21;4.18;;;1.73;;
1567;SDS011;777;47.156;8.326;2023-07-20T02:00:58;3.13;;;1.70;;
1567;SDS011;777;47.156;8.326;2023-07-20T02:03:53;2.90;;;2.00;;
1567;SDS011;777;47.156;8.326;2023-07-20T02:06:38;2.78;;;1.83;;
1567;SDS011;777;47.156;8.326;2023-07-20T02:09:14;4.50;;;1.83;;
1567;SDS011;777;47.156;8.326;2023-07-20T02:12:08;4.35;;;2.60;;
1567;SDS011;777;47.156;8.326;2023-07-20T02:14:53;2.47;;;1.60;;
1567;SDS011;777;47.156;8.326;2023-07-20T02:17:47;3.85;;;1.70;;
1567;SDS011;777;47.156;8.326;2023-07-20T02:20:25;4.97;;;2.03;;
1567;SDS011;777;47.156;8.326;2023-07-20T02:26:06;3.83;;;1.50;;
1567;SDS011;777;47.156;8.326;2023-07-20T02:28:56;4.53;;;1.70;;
1567;SDS011;777;47.156;8.326;2023-07-20T02:31:44;4.70;;;1.50;;
1567;SDS011;777;47.156;8.326;2023-07-20T02:34:44;3.90;;;1.80;;
1567;SDS011;777;47.156;8.326;2023-07-20T02:37:13;4.90;;;1.55;;
1567;SDS011;777;47.156;8.326;2023-07-20T02:39:57;3.28;;;1.52;;
1567;SDS011;777;47.156;8.326;2023-07-20T02:42:46;2.47;;;1.48;;
1567;SDS011;777;47.156;8.326;2023-07-20T02:45:39;3.35;;;1.88;;
1567;SDS011;777;47.156;8.326;2023-07-20T02:48:24;2.95;;;1.70;;
1567;SDS011;777;47.156;8.326;2023-07-20T02:50:59;4.22;;;2.10;;
1567;SDS011;777;47.156;8.326;2023-07-20T02:53:35;4.28;;;1.83;;
1567;SDS011;777;47.156;8.326;2023-07-20T02:56:18;2.20;;;1.60;;
1567;SDS011;777;47.156;8.326;2023-07-20T02:58:52;4.70;;;1.70;;
1567;SDS011;777;47.156;8.326;2023-07-20T03:01:22;4.57;;;1.92;;
1567;SDS011;777;47.156;8.326;2023-07-20T03:04:03;4.32;;;1.67;;
1567;SDS011;777;47.156;8.326;2023-07-20T03:06:42;2.38;;;1.35;;
1567;SDS011;777;47.156;8.326;2023-07-20T03:09:13;3.58;;;1.52;;
1567;SDS011;777;47.156;8.326;2023-07-20T03:12:02;1.98;;;1.45;;
1567;SDS011;777;47.156;8.326;2023-07-20T03:14:39;2.25;;;1.42;;
1567;SDS011;777;47.156;8.326;2023-07-20T03:17:15;3.90;;;1.83;;
1567;SDS011;777;47.156;8.326;2023-07-20T03:19:51;4.32;;;1.60;;
1567;SDS011;777;47.156;8.326;2023-07-20T03:22:30;3.55;;;1.95;;
1567;SDS011;777;47.156;8.326;2023-07-20T03:25:05;3.33;;;1.77;;
1567;SDS011;777;47.156;8.326;2023-07-20T03:27:42;5.10;;;1.88;;
1567;SDS011;777;47.156;8.326;2023-07-20T03:30:20;5.68;;;1.83;;
1567;SDS011;777;47.156;8.326;2023-07-20T03:32:55;4.25;;;2.05;;
1567;SDS011;777;47.156;8.326;2023-07-20T03:35:27;3.20;;;1.50;;
1567;SDS011;777;47.156;8.326;2023-07-20T03:38:05;2.78;;;1.88;;
1567;SDS011;777;47.156;8.326;2023-07-20T03:40:49;2.95;;;1.85;;
1567;SDS011;777;47.156;8.326;2023-07-20T03:43:28;3.22;;;1.58;;
1567;SDS011;777;47.156;8.326;2023-07-20T03:46:10;4.55;;;1.70;;
1567;SDS011;777;47.156;8.326;2023-07-20T03:48:41;4.68;;;1.58;;
1567;SDS011;777;47.156;8.326;2023-07-20T03:51:15;4.43;;;1.77;;
1567;SDS011;777;47.156;8.326;2023-07-20T03:53:45;2.65;;;1.65;;
1567;SDS011;777;47.156;8.326;2023-07-20T03:56:15;3.78;;;1.55;;
1567;SDS011;777;47.156;8.326;2023-07-20T03:58:47;4.93;;;1.70;;
1567;SDS011;777;47.156;8.326;2023-07-20T04:01:22;3.15;;;1.30;;
1567;SDS011;777;47.156;8.326;2023-07-20T04:04:04;2.75;;;1.40;;
1567;SDS011;777;47.156;8.326;2023-07-20T04:06:42;6.22;;;1.58;;
1567;SDS011;777;47.156;8.326;2023-07-20T04:09:18;2.33;;;1.52;;
1567;SDS011;777;47.156;8.326;2023-07-20T04:12:02;2.95;;;1.60;;
1567;SDS011;777;47.156;8.326;2023-07-20T04:14:53;3.88;;;1.95;;
1567;SDS011;777;47.156;8.326;2023-07-20T04:17:42;3.85;;;1.50;;
1567;SDS011;777;47.156;8.326;2023-07-20T04:20:21;2.53;;;1.40;;
1567;SDS011;777;47.156;8.326;2023-07-20T04:22:58;3.47;;;1.70;;
1567;SDS011;777;47.156;8.326;2023-07-20T04:25:48;4.97;;;2.20;;
1567;SDS011;777;47.156;8.326;2023-07-20T04:28:26;3.00;;;1.52;;
1567;SDS011;777;47.156;8.326;2023-07-20T04:31:09;4.57;;;1.60;;
1567;SDS011;777;47.156;8.326;2023-07-20T04:33:47;3.53;;;1.73;;
1567;SDS011;777;47.156;8.326;2023-07-20T04:39:10;3.30;;;1.50;;
1567;SDS011;777;47.156;8.326;2023-07-20T04:41:46;7.55;;;2.58;;
1567;SDS011;777;47.156;8.326;2023-07-20T04:44:18;2.25;;;1.42;;
1567;SDS011;777;47.156;8.326;2023-07-20T04:49:32;3.72;;;1.67;;
1567;SDS011;777;47.156;8.326;2023-07-20T04:52:07;2.95;;;1.50;;
1567;SDS011;777;47.156;8.326;2023-07-20T04:54:48;4.40;;;1.70;;
1567;SDS011;777;47.156;8.326;2023-07-20T04:57:20;3.38;;;1.85;;
1567;SDS011;777;47.156;8.326;2023-07-20T05:00:12;4.85;;;1.73;;
1567;SDS011;777;47.156;8.326;2023-07-20T05:02:46;3.90;;;1.77;;
1567;SDS011;777;47.156;8.326;2023-07-20T05:05:23;7.72;;;2.13;;
1567;SDS011;777;47.156;8.326;2023-07-20T05:08:20;5.60;;;1.92;;
1567;SDS011;777;47.156;8.326;2023-07-20T05:11:01;4.93;;;1.70;;
1567;SDS011;777;47.156;8.326;2023-07-20T05:13:37;4.85;;;1.75;;
1567;SDS011;777;47.156;8.326;2023-07-20T05:16:07;4.88;;;1.65;;
1567;SDS011;777;47.156;8.326;2023-07-20T05:18:54;3.42;;;1.70;;
1567;SDS011;777;47.156;8.326;2023-07-20T05:21:31;4.07;;;1.95;;
1567;SDS011;777;47.156;8.326;2023-07-20T05:24:19;2.97;;;1.63;;
1567;SDS011;777;47.156;8.326;2023-07-20T05:26:58;3.92;;;1.95;;
1567;SDS011;777;47.156;8.326;2023-07-20T05:29:36;2.53;;;1.77;;
1567;SDS011;777;47.156;8.326;2023-07-20T05:32:10;4.30;;;1.92;;
1567;SDS011;777;47.156;8.326;2023-07-20T05:34:52;7.53;;;1.63;;
1567;SDS011;777;47.156;8.326;2023-07-20T05:41:24;4.55;;;1.73;;
1567;SDS011;777;47.156;8.326;2023-07-20T05:44:19;4.22;;;1.83;;
1567;SDS011;777;47.156;8.326;2023-07-20T05:49:54;4.43;;;2.50;;
1567;SDS011;777;47.156;8.326;2023-07-20T05:52:39;5.20;;;2.47;;
1567;SDS011;777;47.156;8.326;2023-07-20T05:55:35;6.53;;;2.22;;
1567;SDS011;777;47.156;8.326;2023-07-20T05:58:49;6.90;;;2.50;;
1567;SDS011;777;47.156;8.326;2023-07-20T06:02:13;6.03;;;2.90;;
1567;SDS011;777;47.156;8.326;2023-07-20T06:04:59;7.55;;;2.70;;
1567;SDS011;777;47.156;8.326;2023-07-20T06:08:21;4.03;;;2.17;;
1567;SDS011;777;47.156;8.326;2023-07-20T06:11:05;2.78;;;1.88;;
1567;SDS011;777;47.156;8.326;2023-07-20T06:14:13;5.55;;;1.80;;
1567;SDS011;777;47.156;8.326;2023-07-20T06:20:08;2.22;;;1.80;;
1567;SDS011;777;47.156;8.326;2023-07-20T06:22:58;1.98;;;1.75;;
1567;SDS011;777;47.156;8.326;2023-07-20T06:26:07;3.90;;;1.92;;
1567;SDS011;777;47.156;8.326;2023-07-20T06:28:56;5.40;;;2.13;;
1567;SDS011;777;47.156;8.326;2023-07-20T06:35:02;5.47;;;1.90;;
1567;SDS011;777;47.156;8.326;2023-07-20T06:38:07;4.72;;;1.88;;
1567;SDS011;777;47.156;8.326;2023-07-20T06:41:20;4.18;;;1.70;;
1567;SDS011;777;47.156;8.326;2023-07-20T06:48:25;4.47;;;2.15;;
1567;SDS011;777;47.156;8.326;2023-07-20T06:54:44;4.75;;;1.77;;
1567;SDS011;777;47.156;8.326;2023-07-20T06:57:30;2.25;;;1.33;;
1567;SDS011;777;47.156;8.326;2023-07-20T07:01:49;3.55;;;1.60;;
1567;SDS011;777;47.156;8.326;2023-07-20T07:07:13;3.28;;;1.80;;
1567;SDS011;777;47.156;8.326;2023-07-20T07:13:27;4.25;;;2.10;;
1567;SDS011;777;47.156;8.326;2023-07-20T07:16:35;4.15;;;2.03;;
1567;SDS011;777;47.156;8.326;2023-07-20T07:23:09;5.40;;;2.20;;
1567;SDS011;777;47.156;8.326;2023-07-20T07:29:09;4.82;;;2.20;;
1567;SDS011;777;47.156;8.326;2023-07-20T07:31:44;3.35;;;1.88;;
1567;SDS011;777;47.156;8.326;2023-07-20T07:34:47;6.40;;;1.85;;
1567;SDS011;777;47.156;8.326;2023-07-20T07:40:40;3.85;;;1.65;;
1567;SDS011;777;47.156;8.326;2023-07-20T07:43:38;5.05;;;1.90;;
1567;SDS011;777;47.156;8.326;2023-07-20T07:46:29;2.15;;;1.23;;
1567;SDS011;777;47.156;8.326;2023-07-20T07:49:09;2.92;;;1.50;;
1567;SDS011;777;47.156;8.326;2023-07-20T07:51:51;5.38;;;1.73;;
1567;SDS011;777;47.156;8.326;2023-07-20T07:54:37;5.57;;;1.48;;
1567;SDS011;777;47.156;8.326;2023-07-20T07:57:19;6.68;;;1.40;;
1567;SDS011;777;47.156;8.326;2023-07-20T08:00:05;6.50;;;1.55;;
1567;SDS011;777;47.156;8.326;2023-07-20T08:02:56;2.78;;;1.60;;
1567;SDS011;777;47.156;8.326;2023-07-20T08:05:56;3.67;;;1.20;;
1567;SDS011;777;47.156;8.326;2023-07-20T08:08:51;3.33;;;1.30;;
1567;SDS011;777;47.156;8.326;2023-07-20T08:11:47;4.35;;;1.42;;
1567;SDS011;777;47.156;8.326;2023-07-20T08:14:28;4.07;;;1.20;;
1567;SDS011;777;47.156;8.326;2023-07-20T08:17:12;3.78;;;1.15;;
1567;SDS011;777;47.156;8.326;2023-07-20T08:19:54;2.58;;;1.25;;
1567;SDS011;777;47.156;8.326;2023-07-20T08:22:32;2.90;;;1.13;;
1567;SDS011;777;47.156;8.326;2023-07-20T08:25:04;5.10;;;1.10;;
1567;SDS011;777;47.156;8.326;2023-07-20T08:30:49;1.73;;;1.10;;
1567;SDS011;777;47.156;8.326;2023-07-20T08:33:51;5.53;;;1.00;;
1567;SDS011;777;47.156;8.326;2023-07-20T08:36:19;3.25;;;1.02;;
1567;SDS011;777;47.156;8.326;2023-07-20T08:39:00;3.92;;;1.23;;
1567;SDS011;777;47.156;8.326;2023-07-20T08:41:35;2.83;;;1.30;;
1567;SDS011;777;47.156;8.326;2023-07-20T08:44:25;2.42;;;1.20;;
1567;SDS011;777;47.156;8.326;2023-07-20T08:46:59;4.03;;;1.23;;
1567;SDS011;777;47.156;8.326;2023-07-20T08:49:44;4.82;;;1.35;;
1567;SDS011;777;47.156;8.326;2023-07-20T08:52:23;2.28;;;1.30;;
1567;SDS011;777;47.156;8.326;2023-07-20T08:54:58;4.18;;;1.38;;
1567;SDS011;777;47.156;8.326;2023-07-20T08:57:44;3.45;;;1.30;;
1567;SDS011;777;47.156;8.326;2023-07-20T09:00:27;3.67;;;1.40;;
1567;SDS011;777;47.156;8.326;2023-07-20T09:03:07;2.88;;;1.20;;
1567;SDS011;777;47.156;8.326;2023-07-20T09:05:46;3.47;;;1.50;;
1567;SDS011;777;47.156;8.326;2023-07-20T09:08:22;4.45;;;1.30;;
1567;SDS011;777;47.156;8.326;2023-07-20T09:11:02;3.55;;;1.30;;
1567;SDS011;777;47.156;8.326;2023-07-20T09:16:23;5.78;;;1.63;;
1567;SDS011;777;47.156;8.326;2023-07-20T09:18:54;2.13;;;1.20;;
1567;SDS011;777;47.156;8.326;2023-07-20T09:21:29;9.20;;;1.20;;
1567;SDS011;777;47.156;8.326;2023-07-20T09:24:00;3.60;;;2.03;;
1567;SDS011;777;47.156;8.326;2023-07-20T09:26:47;3.60;;;1.20;;
1567;SDS011;777;47.156;8.326;2023-07-20T09:29:50;2.85;;;1.20;;
1567;SDS011;777;47.156;8.326;2023-07-20T09:35:19;4.18;;;1.10;;
1567;SDS011;777;47.156;8.326;2023-07-20T09:38:01;3.97;;;1.20;;
1567;SDS011;777;47.156;8.326;2023-07-20T09:40:43;2.85;;;1.20;;
1567;SDS011;777;47.156;8.326;2023-07-20T09:43:22;2.97;;;1.40;;
1567;SDS011;777;47.156;8.326;2023-07-20T09:45:57;3.35;;;1.30;;
1567;SDS011;777;47.156;8.326;2023-07-20T09:48:57;2.67;;;1.30;;
1567;SDS011;777;47.156;8.326;2023-07-20T09:52:05;4.93;;;1.45;;
1567;SDS011;777;47.156;8.326;2023-07-20T09:54:54;5.00;;;1.27;;
1567;SDS011;777;47.156;8.326;2023-07-20T09:58:06;1.83;;;1.35;;
1567;SDS011;777;47.156;8.326;2023-07-20T10:01:00;2.10;;;1.17;;
1567;SDS011;777;47.156;8.326;2023-07-20T10:03:43;1.80;;;1.20;;
1567;SDS011;777;47.156;8.326;2023-07-20T10:09:48;4.10;;;1.52;;
1567;SDS011;777;47.156;8.326;2023-07-20T10:12:30;3.80;;;1.20;;
1567;SDS011;777;47.156;8.326;2023-07-20T10:15:10;5.68;;;1.35;;
1567;SDS011;777;47.156;8.326;2023-07-20T10:18:02;3.85;;;1.30;;
1567;SDS011;777;47.156;8.326;2023-07-20T10:21:05;3.40;;;1.42;;
1567;SDS011;777;47.156;8.326;2023-07-20T10:23:48;3.80;;;1.30;;
1567;SDS011;777;47.156;8.326;2023-07-20T10:26:51;4.00;;;1.10;;
1567;SDS011;777;47.156;8.326;2023-07-20T10:29:22;3.00;;;1.27;;
1567;SDS011;777;47.156;8.326;2023-07-20T10:35:28;2.67;;;1.38;;
1567;SDS011;777;47.156;8.326;2023-07-20T10:38:22;2.40;;;1.30;;
1567;SDS011;777;47.156;8.326;2023-07-20T10:41:28;2.58;;;1.30;;
1567;SDS011;777;47.156;8.326;2023-07-20T10:47:36;3.47;;;1.40;;
1567;SDS011;777;47.156;8.326;2023-07-20T10:50:32;3.10;;;1.30;;
1567;SDS011;777;47.156;8.326;2023-07-20T10:53:19;4.90;;;1.38;;
1567;SDS011;777;47.156;8.326;2023-07-20T10:56:11;4.38;;;1.60;;
1567;SDS011;777;47.156;8.326;2023-07-20T10:59:17;3.22;;;1.40;;
1567;SDS011;777;47.156;8.326;2023-07-20T11:02:06;3.40;;;1.60;;
1567;SDS011;777;47.156;8.326;2023-07-20T11:04:47;4.28;;;1.60;;
1567;SDS011;777;47.156;8.326;2023-07-20T11:07:43;1.92;;;1.35;;
1567;SDS011;777;47.156;8.326;2023-07-20T11:10:21;3.90;;;1.48;;
1567;SDS011;777;47.156;8.326;2023-07-20T11:13:18;4.20;;;1.50;;
1567;SDS011;777;47.156;8.326;2023-07-20T11:16:19;3.33;;;1.38;;
1567;SDS011;777;47.156;8.326;2023-07-20T11:19:23;3.35;;;1.52;;
1567;SDS011;777;47.156;8.326;2023-07-20T11:25:24;3.25;;;1.58;;
1567;SDS011;777;47.156;8.326;2023-07-20T11:28:19;2.50;;;1.42;;
1567;SDS011;777;47.156;8.326;2023-07-20T11:31:24;2.00;;;1.20;;
1567;SDS011;777;47.156;8.326;2023-07-20T11:34:15;3.95;;;1.75;;
1567;SDS011;777;47.156;8.326;2023-07-20T11:37:21;2.65;;;1.40;;
1567;SDS011;777;47.156;8.326;2023-07-20T11:39:54;2.75;;;1.58;;
1567;SDS011;777;47.156;8.326;2023-07-20T11:42:30;3.80;;;1.42;;
1567;SDS011;777;47.156;8.326;2023-07-20T11:45:05;4.50;;;1.40;;
1567;SDS011;777;47.156;8.326;2023-07-20T11:47:36;3.60;;;1.67;;
1567;SDS011;777;47.156;8.326;2023-07-20T11:50:11;4.85;;;1.35;;
1567;SDS011;777;47.156;8.326;2023-07-20T11:52:49;3.17;;;1.70;;
1567;SDS011;777;47.156;8.326;2023-07-20T11:55:54;2.75;;;1.67;;
1567;SDS011;777;47.156;8.326;2023-07-20T11:58:54;3.38;;;1.52;;
1567;SDS011;777;47.156;8.326;2023-07-20T12:01:58;2.28;;;1.58;;
1567;SDS011;777;47.156;8.326;2023-07-20T12:04:35;3.08;;;1.80;;
1567;SDS011;777;47.156;8.326;2023-07-20T12:07:34;2.85;;;1.40;;
1567;SDS011;777;47.156;8.326;2023-07-20T12:10:25;5.82;;;1.50;;
1567;SDS011;777;47.156;8.326;2023-07-20T12:13:09;3.05;;;1.70;;
1567;SDS011;777;47.156;8.326;2023-07-20T12:16:26;3.70;;;1.38;;
1567;SDS011;777;47.156;8.326;2023-07-20T12:19:04;2.08;;;1.45;;
1567;SDS011;777;47.156;8.326;2023-07-20T12:22:18;2.33;;;1.55;;
1567;SDS011;777;47.156;8.326;2023-07-20T12:24:58;4.13;;;1.40;;
1567;SDS011;777;47.156;8.326;2023-07-20T12:28:06;3.90;;;1.55;;
1567;SDS011;777;47.156;8.326;2023-07-20T12:30:47;2.35;;;1.60;;
1567;SDS011;777;47.156;8.326;2023-07-20T12:33:57;4.13;;;1.40;;
1567;SDS011;777;47.156;8.326;2023-07-20T12:36:56;3.35;;;1.30;;
1567;SDS011;777;47.156;8.326;2023-07-20T12:46:23;4.28;;;1.40;;
1567;SDS011;777;47.156;8.326;2023-07-20T12:49:18;1.92;;;1.23;;
1567;SDS011;777;47.156;8.326;2023-07-20T12:52:12;2.78;;;1.25;;
1567;SDS011;777;47.156;8.326;2023-07-20T12:54:48;2.33;;;1.48;;
1567;SDS011;777;47.156;8.326;2023-07-20T12:57:27;4.50;;;1.23;;
1567;SDS011;777;47.156;8.326;2023-07-20T13:00:17;1.95;;;1.25;;
1567;SDS011;777;47.156;8.326;2023-07-20T13:02:53;2.50;;;1.33;;
1567;SDS011;777;47.156;8.326;2023-07-20T13:05:59;4.20;;;1.35;;
1567;SDS011;777;47.156;8.326;2023-07-20T13:08:47;1.58;;;1.08;;
1567;SDS011;777;47.156;8.326;2023-07-20T13:11:36;3.05;;;1.20;;
1567;SDS011;777;47.156;8.326;2023-07-20T13:18:00;3.42;;;1.23;;
1567;SDS011;777;47.156;8.326;2023-07-20T13:21:06;2.08;;;1.30;;
1567;SDS011;777;47.156;8.326;2023-07-20T13:27:08;2.05;;;1.30;;
1567;SDS011;777;47.156;8.326;2023-07-20T13:29:50;3.38;;;1.08;;
1567;SDS011;777;47.156;8.326;2023-07-20T13:35:59;3.33;;;1.10;;
1567;SDS011;777;47.156;8.326;2023-07-20T13:38:46;8.23;;;1.20;;
1567;SDS011;777;47.156;8.326;2023-07-20T13:41:17;1.75;;;1.20;;
1567;SDS011;777;47.156;8.326;2023-07-20T13:43:55;2.55;;;1.30;;
1567;SDS011;777;47.156;8.326;2023-07-20T13:46:46;1.67;;;1.10;;
1567;SDS011;777;47.156;8.326;2023-07-20T13:49:25;3.03;;;1.00;;
1567;SDS011;777;47.156;8.326;2023-07-20T13:52:06;2.45;;;0.95;;
1567;SDS011;777;47.156;8.326;2023-07-20T13:54:51;3.10;;;1.20;;
1567;SDS011;777;47.156;8.326;2023-07-20T13:57:57;2.75;;;1.30;;
1567;SDS011;777;47.156;8.326;2023-07-20T14:00:47;2.70;;;1.08;;
1567;SDS011;777;47.156;8.326;2023-07-20T14:03:37;3.30;;;0.90;;
1567;SDS011;777;47.156;8.326;2023-07-20T14:06:14;4.00;;;1.10;;
1567;SDS011;777;47.156;8.326;2023-07-20T14:08:55;4.90;;;1.10;;
1567;SDS011;777;47.156;8.326;2023-07-20T14:11:50;3.28;;;1.08;;
1567;SDS011;777;47.156;8.326;2023-07-20T14:14:37;6.50;;;1.40;;
1567;SDS011;777;47.156;8.326;2023-07-20T14:17:11;2.50;;;1.30;;
1567;SDS011;777;47.156;8.326;2023-07-20T14:20:20;2.50;;;1.50;;
1567;SDS011;777;47.156;8.326;2023-07-20T14:23:10;4.90;;;1.65;;
1567;SDS011;777;47.156;8.326;2023-07-20T14:25:47;5.22;;;1.25;;
1567;SDS011;777;47.156;8.326;2023-07-20T14:28:27;4.03;;;1.50;;
1567;SDS011;777;47.156;8.326;2023-07-20T14:31:07;4.63;;;1.40;;
1567;SDS011;777;47.156;8.326;2023-07-20T14:33:43;3.97;;;1.42;;
1567;SDS011;777;47.156;8.326;2023-07-20T14:36:22;4.75;;;1.73;;
1567;SDS011;777;47.156;8.326;2023-07-20T14:38:59;4.57;;;1.80;;
1567;SDS011;777;47.156;8.326;2023-07-20T14:41:41;5.32;;;1.75;;
1567;SDS011;777;47.156;8.326;2023-07-20T14:45:24;6.25;;;1.73;;
1567;SDS011;777;47.156;8.326;2023-07-20T14:47:30;3.15;;;1.50;;
1567;SDS011;777;47.156;8.326;2023-07-20T14:50:09;4.32;;;1.60;;
1567;SDS011;777;47.156;8.326;2023-07-20T14:52:43;4.00;;;1.52;;
1567;SDS011;777;47.156;8.326;2023-07-20T14:55:25;5.13;;;1.60;;
1567;SDS011;777;47.156;8.326;2023-07-20T14:57:56;3.05;;;1.63;;
1567;SDS011;777;47.156;8.326;2023-07-20T15:00:31;4.78;;;1.45;;
1567;SDS011;777;47.156;8.326;2023-07-20T15:03:08;4.45;;;1.65;;
1567;SDS011;777;47.156;8.326;2023-07-20T15:05:53;2.38;;;1.70;;
1567;SDS011;777;47.156;8.326;2023-07-20T15:08:31;5.80;;;1.80;;
1567;SDS011;777;47.156;8.326;2023-07-20T15:11:18;2.92;;;1.50;;
1567;SDS011;777;47.156;8.326;2023-07-20T15:13:55;3.92;;;1.48;;
1567;SDS011;777;47.156;8.326;2023-07-20T15:16:46;4.97;;;1.52;;
1567;SDS011;777;47.156;8.326;2023-07-20T15:19:41;2.35;;;1.58;;
1567;SDS011;777;47.156;8.326;2023-07-20T15:22:20;4.25;;;1.48;;
1567;SDS011;777;47.156;8.326;2023-07-20T15:28:29;2.75;;;1.60;;
1567;SDS011;777;47.156;8.326;2023-07-20T15:31:14;3.95;;;1.40;;
1567;SDS011;777;47.156;8.326;2023-07-20T15:33:47;5.18;;;1.45;;
1567;SDS011;777;47.156;8.326;2023-07-20T15:36:26;5.68;;;1.63;;
1567;SDS011;777;47.156;8.326;2023-07-20T15:39:02;4.20;;;1.42;;
1567;SDS011;777;47.156;8.326;2023-07-20T15:41:44;3.00;;;1.63;;
1567;SDS011;777;47.156;8.326;2023-07-20T15:44:26;3.15;;;1.33;;
1567;SDS011;777;47.156;8.326;2023-07-20T15:47:01;4.25;;;1.45;;
1567;SDS011;777;47.156;8.326;2023-07-20T15:50:15;5.57;;;1.55;;
1567;SDS011;777;47.156;8.326;2023-07-20T15:53:12;3.95;;;1.65;;
1567;SDS011;777;47.156;8.326;2023-07-20T15:55:52;4.57;;;1.48;;
1567;SDS011;777;47.156;8.326;2023-07-20T15:58:59;2.30;;;1.40;;
1567;SDS011;777;47.156;8.326;2023-07-20T16:02:21;4.80;;;1.40;;
1567;SDS011;777;47.156;8.326;2023-07-20T16:05:35;4.68;;;1.70;;
1567;SDS011;777;47.156;8.326;2023-07-20T16:08:05;3.83;;;1.40;;
1567;SDS011;777;47.156;8.326;2023-07-20T16:10:33;4.93;;;1.60;;
1567;SDS011;777;47.156;8.326;2023-07-20T16:13:00;5.72;;;1.45;;
1567;SDS011;777;47.156;8.326;2023-07-20T16:15:27;3.42;;;1.50;;
1567;SDS011;777;47.156;8.326;2023-07-20T16:17:56;3.25;;;1.60;;
1567;SDS011;777;47.156;8.326;2023-07-20T16:20:23;4.85;;;1.52;;
1567;SDS011;777;47.156;8.326;2023-07-20T16:22:51;6.38;;;1.77;;
1567;SDS011;777;47.156;8.326;2023-07-20T16:25:18;4.93;;;1.60;;
1567;SDS011;777;47.156;8.326;2023-07-20T16:27:46;3.17;;;1.40;;
1567;SDS011;777;47.156;8.326;2023-07-20T16:30:13;6.75;;;1.90;;
1567;SDS011;777;47.156;8.326;2023-07-20T16:32:41;5.65;;;1.40;;
1567;SDS011;777;47.156;8.326;2023-07-20T16:35:10;6.03;;;1.70;;
1567;SDS011;777;47.156;8.326;2023-07-20T16:37:38;4.43;;;1.60;;
1567;SDS011;777;47.156;8.326;2023-07-20T16:40:07;3.65;;;1.38;;
1567;SDS011;777;47.156;8.326;2023-07-20T16:42:37;6.88;;;1.63;;
1567;SDS011;777;47.156;8.326;2023-07-20T16:45:05;4.53;;;1.60;;
1567;SDS011;777;47.156;8.326;2023-07-20T16:47:33;3.63;;;1.90;;
1567;SDS011;777;47.156;8.326;2023-07-20T16:50:01;4.55;;;1.50;;
1567;SDS011;777;47.156;8.326;2023-07-20T16:52:32;7.18;;;1.67;;
1567;SDS011;777;47.156;8.326;2023-07-20T16:55:00;3.67;;;1.67;;
1567;SDS011;777;47.156;8.326;2023-07-20T16:57:27;2.10;;;1.52;;
1567;SDS011;777;47.156;8.326;2023-07-20T16:59:56;2.78;;;1.60;;
1567;SDS011;777;47.156;8.326;2023-07-20T17:02:26;2.45;;;1.50;;
1567;SDS011;777;47.156;8.326;2023-07-20T17:04:53;4.07;;;1.40;;
1567;SDS011;777;47.156;8.326;2023-07-20T17:07:22;2.95;;;1.35;;
1567;SDS011;777;47.156;8.326;2023-07-20T17:09:53;3.05;;;1.60;;
1567;SDS011;777;47.156;8.326;2023-07-20T17:12:20;3.38;;;1.30;;
1567;SDS011;777;47.156;8.326;2023-07-20T17:14:47;2.05;;;1.20;;
1567;SDS011;777;47.156;8.326;2023-07-20T17:17:15;3.97;;;1.38;;
1567;SDS011;777;47.156;8.326;2023-07-20T17:19:42;3.47;;;1.60;;
1567;SDS011;777;47.156;8.326;2023-07-20T17:22:14;5.35;;;1.40;;
1567;SDS011;777;47.156;8.326;2023-07-20T17:24:41;4.85;;;1.40;;
1567;SDS011;777;47.156;8.326;2023-07-20T17:27:10;4.28;;;1.60;;
1567;SDS011;777;47.156;8.326;2023-07-20T17:29:37;4.75;;;1.40;;
1567;SDS011;777;47.156;8.326;2023-07-20T17:32:05;4.80;;;1.50;;
1567;SDS011;777;47.156;8.326;2023-07-20T17:34:32;3.70;;;1.60;;
1567;SDS011;777;47.156;8.326;2023-07-20T17:36:59;4.45;;;1.50;;
1567;SDS011;777;47.156;8.326;2023-07-20T17:39:26;4.53;;;1.50;;
1567;SDS011;777;47.156;8.326;2023-07-20T17:41:53;3.90;;;1.33;;
1567;SDS011;777;47.156;8.326;2023-07-20T17:44:22;5.20;;;1.55;;
1567;SDS011;777;47.156;8.326;2023-07-20T17:46:49;5.93;;;1.80;;
1567;SDS011;777;47.156;8.326;2023-07-20T17:49:16;2.75;;;1.50;;
1567;SDS011;777;47.156;8.326;2023-07-20T17:51:43;4.93;;;1.40;;
1567;SDS011;777;47.156;8.326;2023-07-20T17:54:10;3.67;;;1.83;;
1567;SDS011;777;47.156;8.326;2023-07-20T17:56:37;4.40;;;1.50;;
1567;SDS011;777;47.156;8.326;2023-07-20T17:59:05;4.57;;;1.70;;
1567;SDS011;777;47.156;8.326;2023-07-20T18:01:33;5.30;;;1.77;;
1567;SDS011;777;47.156;8.326;2023-07-20T18:04:00;4.82;;;1.92;;
1567;SDS011;777;47.156;8.326;2023-07-20T18:06:28;4.25;;;1.92;;
1567;SDS011;777;47.156;8.326;2023-07-20T18:08:55;3.03;;;1.60;;
1567;SDS011;777;47.156;8.326;2023-07-20T18:11:22;3.28;;;1.95;;
1567;SDS011;777;47.156;8.326;2023-07-20T18:13:49;8.77;;;1.75;;
1567;SDS011;777;47.156;8.326;2023-07-20T18:16:16;4.13;;;1.67;;
1567;SDS011;777;47.156;8.326;2023-07-20T18:18:44;3.65;;;1.70;;
1567;SDS011;777;47.156;8.326;2023-07-20T18:21:12;4.78;;;1.90;;
1567;SDS011;777;47.156;8.326;2023-07-20T18:23:39;2.67;;;1.65;;
1567;SDS011;777;47.156;8.326;2023-07-20T18:26:06;3.60;;;1.77;;
1567;SDS011;777;47.156;8.326;2023-07-20T18:28:33;4.78;;;1.80;;
1567;SDS011;777;47.156;8.326;2023-07-20T18:31:03;4.07;;;1.60;;
1567;SDS011;777;47.156;8.326;2023-07-20T18:33:31;2.97;;;1.60;;
1567;SDS011;777;47.156;8.326;2023-07-20T18:36:00;2.53;;;1.70;;
1567;SDS011;777;47.156;8.326;2023-07-20T18:38:27;2.40;;;1.48;;
1567;SDS011;777;47.156;8.326;2023-07-20T18:40:54;3.45;;;1.83;;
1567;SDS011;777;47.156;8.326;2023-07-20T18:43:21;3.13;;;1.63;;
1567;SDS011;777;47.156;8.326;2023-07-20T18:45:51;5.75;;;2.42;;